createdAt,value
2018-12-10T00:01:03.195Z,31.27
2018-12-10T00:03:35.259Z,31.18
2018-12-10T00:06:03.886Z,30.74
2018-12-10T00:08:32.434Z,31.33
2018-12-10T00:11:01.115Z,31.38
2018-12-10T00:13:29.796Z,31.18
2018-12-10T00:15:58.233Z,30.63
2018-12-10T00:18:27.034Z,30.69
2018-12-10T00:20:55.450Z,30.96
2018-12-10T00:23:24.190Z,31.25
2018-12-10T00:25:52.854Z,30.97
2018-12-10T00:28:21.486Z,30.62
2018-12-10T00:30:50.268Z,30.97
2018-12-10T00:33:19.165Z,30.41
2018-12-10T00:35:47.842Z,30.35
2018-12-10T00:38:16.450Z,30.25
2018-12-10T00:40:45.131Z,30.73
2018-12-10T00:43:13.686Z,30.18
2018-12-10T00:45:42.367Z,30.73
2018-12-10T00:48:11.002Z,30.42
2018-12-10T00:50:39.541Z,30.25
2018-12-10T00:53:08.286Z,30.14
2018-12-10T00:55:36.946Z,31.00
2018-12-10T00:58:05.616Z,30.07
2018-12-10T01:00:34.221Z,30.64
2018-12-10T01:03:03.222Z,30.65
2018-12-10T01:05:31.950Z,30.08
2018-12-10T01:08:00.619Z,30.74
2018-12-10T01:10:29.223Z,30.63
2018-12-10T01:12:57.794Z,29.93
2018-12-10T01:15:26.340Z,29.81
2018-12-10T01:17:55.083Z,30.37
2018-12-10T01:20:23.687Z,29.80
2018-12-10T01:22:52.102Z,29.82
2018-12-10T01:25:20.834Z,30.05
2018-12-10T01:27:49.514Z,30.29
2018-12-10T01:30:18.178Z,30.19
2018-12-10T01:32:46.770Z,30.33
2018-12-10T01:35:15.430Z,29.77
2018-12-10T01:37:44.156Z,30.25
2018-12-10T01:40:12.798Z,29.56
2018-12-10T01:42:41.214Z,30.25
2018-12-10T01:45:09.889Z,29.54
2018-12-10T01:47:38.559Z,29.36
2018-12-10T01:50:07.138Z,29.35
2018-12-10T01:52:35.725Z,30.23
2018-12-10T01:55:04.450Z,29.50
2018-12-10T01:57:33.134Z,30.09
2018-12-10T02:00:01.743Z,30.14
2018-12-10T02:02:30.410Z,29.54
2018-12-10T02:04:59.128Z,29.90
2018-12-10T02:07:27.874Z,29.14
2018-12-10T02:09:56.526Z,29.90
2018-12-10T02:12:25.140Z,29.25
2018-12-10T02:14:53.718Z,29.25
2018-12-10T02:17:22.510Z,29.86
2018-12-10T02:19:51.371Z,29.17
2018-12-10T02:22:19.991Z,29.84
2018-12-10T02:24:48.680Z,29.19
2018-12-10T02:27:17.103Z,29.04
2018-12-10T02:29:45.986Z,29.31
2018-12-10T02:32:14.658Z,29.62
2018-12-10T02:34:43.399Z,29.18
2018-12-10T02:37:12.010Z,29.71
2018-12-10T02:39:40.731Z,29.06
2018-12-10T02:42:09.391Z,29.00
2018-12-10T02:44:38.138Z,29.69
2018-12-10T02:47:06.910Z,29.07
2018-12-10T02:49:35.834Z,29.51
2018-12-10T02:52:04.383Z,29.51
2018-12-10T02:54:33.184Z,29.42
2018-12-10T02:57:01.852Z,28.88
2018-12-10T02:59:30.615Z,28.81
2018-12-10T03:01:59.350Z,29.60
2018-12-10T03:04:27.901Z,28.79
2018-12-10T03:06:56.642Z,29.30
2018-12-10T03:09:25.774Z,29.42
2018-12-10T03:11:54.321Z,29.38
2018-12-10T03:14:22.990Z,29.37
2018-12-10T03:16:51.604Z,29.22
2018-12-10T03:19:20.373Z,28.73
2018-12-10T03:21:49.060Z,28.52
2018-12-10T03:24:17.764Z,28.79
2018-12-10T03:26:46.315Z,29.09
2018-12-10T03:29:15.130Z,28.66
2018-12-10T03:31:43.724Z,28.67
2018-12-10T03:34:12.380Z,28.43
2018-12-10T03:36:40.808Z,29.02
2018-12-10T03:39:09.638Z,28.78
2018-12-10T03:41:38.167Z,28.45
2018-12-10T03:44:06.707Z,29.10
2018-12-10T03:46:35.272Z,28.62
2018-12-10T03:49:04.098Z,28.90
2018-12-10T03:51:32.645Z,28.35
2018-12-10T03:54:01.224Z,28.90
2018-12-10T03:56:29.786Z,28.28
2018-12-10T03:58:58.780Z,28.33
2018-12-10T04:01:27.585Z,28.69
2018-12-10T04:03:56.251Z,28.34
2018-12-10T04:06:24.996Z,28.84
2018-12-10T04:08:54.011Z,28.83
2018-12-10T04:11:22.568Z,28.69
2018-12-10T04:13:51.258Z,28.70
2018-12-10T04:16:19.870Z,28.11
2018-12-10T04:18:48.782Z,28.94
2018-12-10T04:21:17.522Z,28.12
2018-12-10T04:23:46.258Z,28.64
2018-12-10T04:26:14.968Z,28.69
2018-12-10T04:28:43.882Z,28.20
2018-12-10T04:31:12.447Z,28.51
2018-12-10T04:33:40.890Z,28.68
2018-12-10T04:36:09.638Z,28.57
2018-12-10T04:38:38.647Z,27.86
2018-12-10T04:41:07.315Z,28.65
2018-12-10T04:43:35.951Z,28.18
2018-12-10T04:46:04.693Z,27.80
2018-12-10T04:48:33.729Z,27.91
2018-12-10T04:51:02.471Z,27.82
2018-12-10T04:53:31.162Z,28.04
2018-12-10T04:55:59.898Z,28.43
2018-12-10T04:58:28.434Z,28.56
2018-12-10T05:00:57.169Z,28.38
2018-12-10T05:03:25.888Z,28.37
2018-12-10T05:05:54.563Z,28.10
2018-12-10T05:08:23.395Z,28.48
2018-12-10T05:10:52.180Z,28.28
2018-12-10T05:13:20.743Z,28.29
2018-12-10T05:15:49.612Z,27.61
2018-12-10T05:18:18.630Z,27.62
2018-12-10T05:20:47.317Z,28.28
2018-12-10T05:23:15.919Z,28.25
2018-12-10T05:25:44.603Z,27.77
2018-12-10T05:28:13.533Z,28.12
2018-12-10T05:30:42.062Z,27.43
2018-12-10T05:33:10.610Z,27.96
2018-12-10T05:35:39.162Z,28.32
2018-12-10T05:38:07.775Z,27.44
2018-12-10T05:40:36.388Z,27.71
2018-12-10T05:43:05.055Z,27.40
2018-12-10T05:45:33.788Z,28.07
2018-12-10T05:48:02.539Z,28.15
2018-12-10T05:50:31.130Z,27.26
2018-12-10T05:52:59.939Z,27.44
2018-12-10T05:55:28.681Z,27.38
2018-12-10T05:57:57.514Z,27.26
2018-12-10T06:00:26.158Z,27.90
2018-12-10T06:02:54.754Z,27.50
2018-12-10T06:05:23.474Z,27.54
2018-12-10T06:07:51.946Z,27.33
2018-12-10T06:10:20.882Z,27.26
2018-12-10T06:12:49.740Z,27.29
2018-12-10T06:15:18.567Z,27.81
2018-12-10T06:17:47.259Z,27.56
2018-12-10T06:20:15.868Z,27.48
2018-12-10T06:22:44.615Z,28.03
2018-12-10T06:25:13.315Z,27.27
2018-12-10T06:27:41.880Z,27.92
2018-12-10T06:30:10.822Z,27.76
2018-12-10T06:32:39.570Z,26.98
2018-12-10T06:35:08.277Z,27.74
2018-12-10T06:37:37.651Z,27.75
2018-12-10T06:40:20.719Z,27.23
2018-12-10T06:42:49.734Z,27.81
2018-12-10T06:45:18.431Z,27.79
2018-12-10T06:47:47.167Z,27.81
2018-12-10T06:50:15.802Z,27.45
2018-12-10T06:52:44.527Z,27.37
2018-12-10T06:55:13.203Z,26.98
2018-12-10T06:57:41.711Z,27.59
2018-12-10T07:00:11.934Z,27.14
2018-12-10T07:02:40.418Z,27.67
2018-12-10T07:05:08.922Z,26.86
2018-12-10T07:07:37.650Z,27.71
2018-12-10T07:10:07.775Z,27.13
2018-12-10T07:12:36.426Z,26.94
2018-12-10T07:15:06.044Z,27.46
2018-12-10T07:17:34.750Z,27.80
2018-12-10T07:20:03.245Z,27.01
2018-12-10T07:22:31.922Z,27.16
2018-12-10T07:25:00.537Z,27.03
2018-12-10T07:27:29.281Z,27.34
2018-12-10T07:29:57.977Z,27.03
2018-12-10T07:32:26.443Z,27.04
2018-12-10T07:34:55.194Z,27.52
2018-12-10T07:37:23.945Z,27.61
2018-12-10T07:39:52.563Z,27.32
2018-12-10T07:42:21.403Z,27.09
2018-12-10T07:44:50.142Z,26.98
2018-12-10T07:47:18.715Z,29.29
2018-12-10T07:49:47.467Z,28.77
2018-12-10T07:52:16.030Z,29.94
2018-12-10T07:54:44.755Z,28.81
2018-12-10T07:57:13.433Z,29.65
2018-12-10T07:59:42.145Z,29.93
2018-12-10T08:02:10.854Z,29.31
2018-12-10T08:04:39.487Z,29.20
2018-12-10T08:07:08.175Z,29.07
2018-12-10T08:09:36.866Z,29.66
2018-12-10T08:12:05.471Z,44.63
2018-12-10T08:14:34.104Z,45.19
2018-12-10T08:17:02.833Z,40.70
2018-12-10T08:19:31.410Z,36.05
2018-12-10T08:22:00.123Z,33.89
2018-12-10T08:24:28.835Z,33.72
2018-12-10T08:26:57.603Z,33.78
2018-12-10T08:29:26.491Z,31.70
2018-12-10T08:31:55.094Z,31.61
2018-12-10T08:34:23.650Z,31.42
2018-12-10T08:36:52.595Z,31.18
2018-12-10T08:39:21.343Z,31.74
2018-12-10T08:41:50.127Z,30.98
2018-12-10T08:44:18.783Z,31.81
2018-12-10T08:46:47.526Z,31.03
2018-12-10T08:49:16.545Z,31.56
2018-12-10T08:51:45.098Z,31.68
2018-12-10T08:54:13.826Z,31.71
2018-12-10T08:56:42.670Z,31.47
2018-12-10T08:59:11.400Z,30.91
2018-12-10T09:01:40.143Z,30.94
2018-12-10T09:04:09.694Z,31.40
2018-12-10T09:06:38.251Z,31.13
2018-12-10T09:09:07.214Z,31.81
2018-12-10T09:11:35.856Z,32.32
2018-12-10T09:14:04.478Z,31.42
2018-12-10T09:16:33.044Z,31.51
2018-12-10T09:19:02.484Z,31.88
2018-12-10T09:21:31.292Z,32.82
2018-12-10T09:23:59.968Z,31.07
2018-12-10T09:26:28.683Z,33.12
2018-12-10T09:28:57.526Z,31.33
2018-12-10T09:31:26.251Z,31.00
2018-12-10T09:33:54.939Z,31.53
2018-12-10T09:36:23.718Z,31.36
2018-12-10T09:38:52.387Z,31.20
2018-12-10T09:41:21.177Z,31.26
2018-12-10T09:43:49.914Z,30.80
2018-12-10T09:46:18.568Z,31.34
2018-12-10T09:48:47.450Z,31.54
2018-12-10T09:51:16.166Z,30.92
2018-12-10T09:53:44.703Z,30.56
2018-12-10T09:56:13.398Z,31.41
2018-12-10T09:58:41.934Z,30.53
2018-12-10T10:01:10.614Z,30.51
2018-12-10T10:03:39.202Z,31.01
2018-12-10T10:06:07.761Z,30.45
2018-12-10T10:08:36.456Z,30.92
2018-12-10T10:11:05.254Z,30.18
2018-12-10T10:13:34.032Z,30.26
2018-12-10T10:16:02.571Z,30.23
2018-12-10T10:18:31.270Z,30.75
2018-12-10T10:21:00.362Z,30.19
2018-12-10T10:23:29.146Z,30.08
2018-12-10T10:25:57.978Z,30.52
2018-12-10T10:28:26.894Z,29.99
2018-12-10T10:30:55.494Z,30.40
2018-12-10T10:33:32.168Z,29.85
2018-12-10T10:35:54.789Z,30.41
2018-12-10T10:38:23.631Z,30.59
2018-12-10T10:40:52.230Z,29.81
2018-12-10T10:43:20.767Z,29.62
2018-12-10T10:45:49.339Z,30.07
2018-12-10T10:48:18.094Z,29.85
2018-12-10T10:50:46.715Z,30.06
2018-12-10T10:53:15.375Z,29.74
2018-12-10T10:55:43.898Z,29.89
2018-12-10T10:58:12.775Z,30.41
2018-12-10T11:00:46.406Z,29.64
2018-12-10T11:03:20.227Z,29.45
2018-12-10T11:05:48.886Z,29.45
2018-12-10T11:08:17.593Z,29.52
2018-12-10T11:10:46.147Z,30.09
2018-12-10T11:13:14.594Z,29.40
2018-12-10T11:15:43.210Z,29.83
2018-12-10T11:18:11.802Z,29.77
2018-12-10T11:20:40.624Z,29.94
2018-12-10T11:23:09.786Z,29.71
2018-12-10T11:25:38.391Z,29.91
2018-12-10T11:28:07.079Z,29.11
2018-12-10T11:30:35.645Z,29.52
2018-12-10T11:33:04.382Z,29.84
2018-12-10T11:35:32.985Z,29.73
2018-12-10T11:38:01.650Z,29.61
2018-12-10T11:40:30.422Z,29.38
2018-12-10T11:42:58.989Z,29.21
2018-12-10T11:45:27.514Z,29.52
2018-12-10T11:47:56.090Z,29.65
2018-12-10T11:50:24.593Z,29.21
2018-12-10T11:52:53.336Z,29.38
2018-12-10T11:55:21.987Z,29.18
2018-12-10T11:57:50.686Z,28.90
2018-12-10T12:00:19.254Z,29.17
2018-12-10T12:02:47.915Z,29.42
2018-12-10T12:05:16.674Z,28.93
2018-12-10T12:07:45.311Z,28.91
2018-12-10T12:10:13.922Z,28.84
2018-12-10T12:12:42.503Z,29.40
2018-12-10T12:15:11.258Z,29.42
2018-12-10T12:17:39.819Z,29.14
2018-12-10T12:20:09.658Z,29.55
2018-12-10T12:22:38.314Z,29.17
2018-12-10T12:25:07.395Z,29.37
2018-12-10T12:27:36.146Z,28.67
2018-12-10T12:30:05.303Z,29.24
2018-12-10T12:32:33.850Z,28.80
2018-12-10T12:35:02.315Z,28.78
2018-12-10T12:37:30.934Z,29.17
2018-12-10T12:39:59.646Z,29.10
2018-12-10T12:42:28.355Z,29.26
2018-12-10T12:44:56.968Z,29.29
2018-12-10T12:47:25.658Z,29.16
2018-12-10T12:49:54.242Z,28.75
2018-12-10T12:52:22.798Z,29.19
2018-12-10T12:54:51.522Z,29.19
2018-12-10T12:57:20.022Z,28.91
2018-12-10T12:59:48.779Z,28.67
2018-12-10T13:02:17.386Z,28.57
2018-12-10T13:04:45.870Z,29.17
2018-12-10T13:07:14.546Z,28.50
2018-12-10T13:09:43.581Z,28.51
2018-12-10T13:12:12.454Z,28.86
2018-12-10T13:14:41.030Z,28.39
2018-12-10T13:17:09.708Z,28.54
2018-12-10T13:19:38.777Z,28.53
2018-12-10T13:22:07.525Z,28.52
2018-12-10T13:24:36.071Z,29.15
2018-12-10T13:27:05.020Z,28.81
2018-12-10T13:29:33.847Z,28.43
2018-12-10T13:32:03.189Z,28.23
2018-12-10T13:34:32.102Z,29.00
2018-12-10T13:37:00.761Z,29.05
2018-12-10T13:39:29.507Z,28.48
2018-12-10T13:41:58.168Z,29.03
2018-12-10T13:44:26.826Z,28.59
2018-12-10T13:46:55.788Z,28.67
2018-12-10T13:49:24.583Z,28.35
2018-12-10T13:51:53.259Z,28.29
2018-12-10T13:54:21.731Z,28.34
2018-12-10T13:56:50.372Z,28.68
2018-12-10T13:59:19.103Z,28.40
2018-12-10T14:01:47.714Z,28.85
2018-12-10T14:04:22.466Z,28.82
2018-12-10T14:06:50.894Z,28.65
2018-12-10T14:09:19.642Z,28.80
2018-12-10T14:11:48.423Z,28.27
2018-12-10T14:14:17.071Z,28.36
2018-12-10T14:16:45.554Z,28.27
2018-12-10T14:19:14.098Z,28.76
2018-12-10T14:21:42.671Z,28.87
2018-12-10T14:24:11.215Z,28.37
2018-12-10T14:26:39.691Z,28.77
2018-12-10T14:29:08.502Z,28.80
2018-12-10T14:31:36.927Z,28.68
2018-12-10T14:34:11.038Z,28.15
2018-12-10T14:36:39.720Z,28.76
2018-12-10T14:39:10.406Z,28.41
2018-12-10T14:41:38.986Z,28.96
2018-12-10T14:44:07.706Z,28.33
2018-12-10T14:46:36.298Z,28.84
2018-12-10T14:49:05.187Z,28.79
2018-12-10T14:51:33.774Z,28.19
2018-12-10T14:54:02.387Z,28.31
2018-12-10T14:56:31.051Z,28.84
2018-12-10T14:58:59.627Z,28.85
2018-12-10T15:01:28.170Z,28.07
2018-12-10T15:03:56.744Z,28.06
2018-12-10T15:06:25.330Z,28.05
2018-12-10T15:08:54.103Z,28.77
2018-12-10T15:11:22.780Z,28.57
2018-12-10T15:13:51.270Z,28.26
2018-12-10T15:16:19.950Z,28.75
2018-12-10T15:18:48.723Z,28.55
2018-12-10T15:21:17.406Z,27.96
2018-12-10T15:23:45.875Z,28.69
2018-12-10T15:26:14.483Z,28.04
2018-12-10T15:28:43.030Z,27.91
2018-12-10T15:31:11.722Z,28.66
2018-12-10T15:33:40.524Z,28.79
2018-12-10T15:36:09.198Z,28.76
2018-12-10T15:38:37.875Z,28.79
2018-12-10T15:41:06.626Z,28.62
2018-12-10T15:43:35.105Z,28.08
2018-12-10T15:46:03.793Z,28.68
2018-12-10T15:48:32.302Z,28.06
2018-12-10T15:51:00.894Z,28.59
2018-12-10T15:53:29.610Z,28.64
2018-12-10T15:55:58.158Z,28.72
2018-12-10T15:58:26.963Z,27.91
2018-12-10T16:00:55.414Z,28.52
2018-12-10T16:03:24.181Z,27.98
2018-12-10T16:05:52.811Z,28.52
2018-12-10T16:08:21.490Z,28.01
2018-12-10T16:10:50.174Z,28.48
2018-12-10T16:13:18.827Z,28.33
2018-12-10T16:15:47.251Z,28.87
2018-12-10T16:18:15.912Z,29.06
2018-12-10T16:20:44.334Z,28.54
2018-12-10T16:23:12.910Z,29.31
2018-12-10T16:25:41.482Z,29.34
2018-12-10T16:28:10.015Z,29.15
2018-12-10T16:30:38.954Z,29.29
2018-12-10T16:33:07.703Z,29.33
2018-12-10T16:35:36.412Z,28.75
2018-12-10T16:38:04.851Z,28.74
2018-12-10T16:40:33.704Z,29.13
2018-12-10T16:43:02.259Z,29.32
2018-12-10T16:45:31.024Z,29.43
2018-12-10T16:47:59.638Z,28.97
2018-12-10T16:50:28.311Z,29.08
2018-12-10T16:52:56.978Z,29.99
2018-12-10T16:55:25.607Z,28.85
2018-12-10T16:57:54.279Z,29.45
2018-12-10T17:00:23.182Z,29.01
2018-12-10T17:02:51.815Z,29.51
2018-12-10T17:05:22.286Z,29.08
2018-12-10T17:07:51.263Z,28.98
2018-12-10T17:10:20.281Z,29.88
2018-12-10T17:12:48.947Z,29.20
2018-12-10T17:15:17.543Z,29.59
2018-12-10T17:17:46.424Z,29.11
2018-12-10T17:20:15.332Z,28.98
2018-12-10T17:22:43.990Z,29.58
2018-12-10T17:25:12.674Z,29.84
2018-12-10T17:27:41.451Z,29.92
2018-12-10T17:30:10.218Z,30.02
2018-12-10T17:32:38.830Z,30.09
2018-12-10T17:35:07.971Z,30.18
2018-12-10T17:37:36.538Z,29.31
2018-12-10T17:40:05.492Z,29.87
2018-12-10T17:42:34.084Z,29.36
2018-12-10T17:45:02.639Z,29.93
2018-12-10T17:47:31.430Z,29.91
2018-12-10T17:50:00.522Z,29.17
2018-12-10T17:52:29.142Z,29.02
2018-12-10T17:54:57.752Z,29.08
2018-12-10T17:57:26.524Z,29.13
2018-12-10T17:59:55.438Z,29.28
2018-12-10T18:02:24.025Z,29.33
2018-12-10T18:04:52.550Z,29.86
2018-12-10T18:07:21.034Z,29.70
2018-12-10T18:09:49.809Z,29.61
2018-12-10T18:12:18.362Z,29.63
2018-12-10T18:14:46.931Z,29.79
2018-12-10T18:17:15.787Z,29.73
2018-12-10T18:19:44.385Z,29.35
2018-12-10T18:22:12.995Z,29.79
2018-12-10T18:24:41.731Z,30.14
2018-12-10T18:27:10.154Z,29.14
2018-12-10T18:29:38.943Z,29.35
2018-12-10T18:32:07.686Z,29.20
2018-12-10T18:34:36.370Z,29.88
2018-12-10T18:37:04.946Z,29.10
2018-12-10T18:39:33.938Z,29.78
2018-12-10T18:42:02.664Z,29.93
2018-12-10T18:44:31.289Z,29.99
2018-12-10T18:46:59.994Z,29.95
2018-12-10T18:49:28.726Z,29.76
2018-12-10T18:51:57.516Z,29.23
2018-12-10T18:54:26.318Z,29.70
2018-12-10T18:56:54.936Z,29.48
2018-12-10T18:59:23.919Z,29.42
2018-12-10T19:01:52.603Z,29.89
2018-12-10T19:04:21.281Z,29.91
2018-12-10T19:06:49.946Z,29.34
2018-12-10T19:09:18.746Z,29.09
2018-12-10T19:11:47.362Z,29.33
2018-12-10T19:14:15.950Z,29.00
2018-12-10T19:16:44.679Z,29.78
2018-12-10T19:19:13.262Z,29.91
2018-12-10T19:21:41.960Z,29.98
2018-12-10T19:24:10.598Z,29.81
2018-12-10T19:26:39.144Z,29.48
2018-12-10T19:29:08.875Z,29.33
2018-12-10T19:31:37.630Z,29.22
2018-12-10T19:34:06.058Z,29.06
2018-12-10T19:36:34.490Z,30.37
2018-12-10T19:39:03.823Z,30.35
2018-12-10T19:41:32.437Z,30.23
2018-12-10T19:44:01.198Z,30.96
2018-12-10T19:46:29.690Z,31.17
2018-12-10T19:48:58.542Z,30.49
2018-12-10T19:51:27.254Z,29.90
2018-12-10T19:53:55.952Z,30.66
2018-12-10T19:56:24.474Z,30.80
2018-12-10T19:58:53.455Z,29.90
2018-12-10T20:01:21.940Z,30.42
2018-12-10T20:03:50.386Z,30.31
2018-12-10T20:06:34.271Z,29.85
2018-12-10T20:09:08.866Z,30.36
2018-12-10T20:11:37.463Z,30.77
2018-12-10T20:14:06.138Z,29.71
2018-12-10T20:16:34.584Z,30.35
2018-12-10T20:19:03.072Z,29.96
2018-12-10T20:21:31.518Z,30.45
2018-12-10T20:23:59.938Z,29.56
2018-12-10T20:26:28.764Z,29.85
2018-12-10T20:28:57.411Z,30.04
2018-12-10T20:31:26.117Z,29.89
2018-12-10T20:33:54.795Z,29.30
2018-12-10T20:36:23.680Z,28.95
2018-12-10T20:38:52.378Z,29.59
2018-12-10T20:41:21.462Z,29.01
2018-12-10T20:43:50.027Z,29.02
2018-12-10T20:46:18.534Z,29.51
2018-12-10T20:48:47.194Z,29.53
2018-12-10T20:51:15.694Z,28.74
2018-12-10T20:53:44.256Z,29.12
2018-12-10T20:56:13.118Z,28.64
2018-12-10T20:58:41.732Z,28.47
2018-12-10T21:01:10.491Z,29.21
2018-12-10T21:03:38.957Z,29.17
2018-12-10T21:06:12.718Z,29.98
2018-12-10T21:08:41.675Z,29.84
2018-12-10T21:11:10.368Z,29.31
2018-12-10T21:13:38.937Z,29.20
2018-12-10T21:16:07.533Z,29.18
2018-12-10T21:18:36.359Z,29.85
2018-12-10T21:21:04.910Z,30.22
2018-12-10T21:23:33.598Z,30.37
2018-12-10T21:26:02.110Z,30.80
2018-12-10T21:28:30.599Z,30.72
2018-12-10T21:30:59.282Z,31.04
2018-12-10T21:33:27.846Z,30.75
2018-12-10T21:35:56.338Z,30.57
2018-12-10T21:38:25.059Z,30.84
2018-12-10T21:40:53.611Z,30.41
2018-12-10T21:43:22.438Z,30.68
2018-12-10T21:45:51.319Z,30.29
2018-12-10T21:48:20.069Z,30.55
2018-12-10T21:50:48.622Z,30.64
2018-12-10T21:53:17.377Z,29.90
2018-12-10T21:55:45.990Z,30.23
2018-12-10T21:58:14.415Z,30.07
2018-12-10T22:00:43.186Z,30.47
2018-12-10T22:03:11.608Z,30.27
2018-12-10T22:05:40.166Z,30.71
2018-12-10T22:08:08.838Z,30.30
2018-12-10T22:10:37.502Z,30.20
2018-12-10T22:13:05.945Z,30.79
2018-12-10T22:15:34.567Z,30.79
2018-12-10T22:18:03.274Z,31.21
2018-12-10T22:20:31.892Z,30.55
2018-12-10T22:23:00.482Z,31.24
2018-12-10T22:25:29.166Z,31.06
2018-12-10T22:27:57.586Z,31.15
2018-12-10T22:30:26.319Z,30.58
2018-12-10T22:32:55.066Z,31.25
2018-12-10T22:35:23.646Z,31.25
2018-12-10T22:37:52.448Z,31.10
2018-12-10T22:40:21.013Z,30.89
2018-12-10T22:42:49.627Z,30.86
2018-12-10T22:45:18.755Z,30.86
2018-12-10T22:47:47.290Z,31.38
2018-12-10T22:50:15.708Z,30.80
2018-12-10T22:52:44.258Z,31.40
2018-12-10T22:55:12.935Z,31.11
2018-12-10T22:57:41.527Z,31.33
2018-12-10T23:00:11.231Z,31.41
2018-12-10T23:02:39.710Z,31.37
2018-12-10T23:05:08.261Z,31.48
2018-12-10T23:07:36.954Z,31.09
2018-12-10T23:10:05.834Z,30.98
2018-12-10T23:12:34.422Z,30.86
2018-12-10T23:15:03.026Z,31.52
2018-12-10T23:17:31.574Z,31.00
2018-12-10T23:20:00.158Z,30.92
2018-12-10T23:22:28.695Z,31.52
2018-12-10T23:24:57.242Z,30.95
2018-12-10T23:27:25.918Z,30.93
2018-12-10T23:29:54.672Z,30.81
2018-12-10T23:32:23.354Z,30.90
2018-12-10T23:34:52.037Z,31.57
2018-12-10T23:37:20.794Z,30.97
2018-12-10T23:39:49.526Z,31.45
2018-12-10T23:42:18.079Z,31.28
2018-12-10T23:44:51.885Z,31.51
2018-12-10T23:47:20.595Z,30.92
2018-12-10T23:49:49.254Z,31.50
2018-12-10T23:52:17.875Z,31.68
2018-12-10T23:54:46.530Z,31.08
2018-12-10T23:57:15.084Z,31.54
2018-12-10T23:59:43.820Z,31.47
